sensor_id;sensor_type;location;lat;lon;timestamp;pressure;altitude;pressure_sealevel;temperature;humidity
77192;BME280;66172;48.526;8.078;2024-01-07T00:00:22;99080.97;;;5.16;97.21
77192;BME280;66172;48.526;8.078;2024-01-07T00:02:48;99077.81;;;5.14;97.77
77192;BME280;66172;48.526;8.078;2024-01-07T00:05:14;99073.81;;;5.11;97.47
77192;BME280;66172;48.526;8.078;2024-01-07T00:07:39;99073.81;;;5.11;98.06
77192;BME280;66172;48.526;8.078;2024-01-07T00:10:05;99075.69;;;5.02;97.80
77192;BME280;66172;48.526;8.078;2024-01-07T00:12:31;99080.75;;;5.03;98.29
77192;BME280;66172;48.526;8.078;2024-01-07T00:14:57;99085.66;;;5.01;98.35
77192;BME280;66172;48.526;8.078;2024-01-07T00:17:23;99081.66;;;4.90;98.83
77192;BME280;66172;48.526;8.078;2024-01-07T00:19:49;99076.41;;;4.85;98.68
77192;BME280;66172;48.526;8.078;2024-01-07T00:22:15;99080.47;;;4.74;98.42
77192;BME280;66172;48.526;8.078;2024-01-07T00:24:41;99085.06;;;4.74;98.42
77192;BME280;66172;48.526;8.078;2024-01-07T00:27:07;99079.97;;;4.72;98.78
77192;BME280;66172;48.526;8.078;2024-01-07T00:29:34;99079.66;;;4.74;98.64
77192;BME280;66172;48.526;8.078;2024-01-07T00:32:01;99079.31;;;4.67;99.26
77192;BME280;66172;48.526;8.078;2024-01-07T00:34:28;99085.34;;;4.72;99.35
77192;BME280;66172;48.526;8.078;2024-01-07T00:36:53;99086.47;;;4.71;99.27
77192;BME280;66172;48.526;8.078;2024-01-07T00:39:20;99082.53;;;4.77;99.27
77192;BME280;66172;48.526;8.078;2024-01-07T00:41:46;99085.25;;;4.77;99.09
77192;BME280;66172;48.526;8.078;2024-01-07T00:44:12;99086.94;;;4.73;99.09
77192;BME280;66172;48.526;8.078;2024-01-07T00:46:38;99093.44;;;4.72;99.16
77192;BME280;66172;48.526;8.078;2024-01-07T00:49:04;99086.47;;;4.71;98.94
77192;BME280;66172;48.526;8.078;2024-01-07T00:51:30;99084.88;;;4.70;100.00
77192;BME280;66172;48.526;8.078;2024-01-07T00:53:56;99095.31;;;4.72;99.12
77192;BME280;66172;48.526;8.078;2024-01-07T00:56:25;99081.22;;;4.66;98.90
77192;BME280;66172;48.526;8.078;2024-01-07T00:58:51;99088.38;;;4.71;98.93
77192;BME280;66172;48.526;8.078;2024-01-07T01:01:17;99083.78;;;4.71;99.00
77192;BME280;66172;48.526;8.078;2024-01-07T01:03:43;99087.69;;;4.65;99.24
77192;BME280;66172;48.526;8.078;2024-01-07T01:06:09;99088.19;;;4.67;98.84
77192;BME280;66172;48.526;8.078;2024-01-07T01:08:34;99091.97;;;4.66;98.91
77192;BME280;66172;48.526;8.078;2024-01-07T01:11:00;99087.25;;;4.72;99.58
77192;BME280;66172;48.526;8.078;2024-01-07T01:13:26;99085.69;;;4.71;99.17
77192;BME280;66172;48.526;8.078;2024-01-07T01:15:52;99083.63;;;4.76;98.47
77192;BME280;66172;48.526;8.078;2024-01-07T01:18:18;99089.09;;;4.63;98.96
77192;BME280;66172;48.526;8.078;2024-01-07T01:20:44;99093.34;;;4.55;99.36
77192;BME280;66172;48.526;8.078;2024-01-07T01:23:10;99096.38;;;4.40;99.88
77192;BME280;66172;48.526;8.078;2024-01-07T01:25:36;99095.13;;;4.37;100.00
77192;BME280;66172;48.526;8.078;2024-01-07T01:28:01;99095.63;;;4.39;100.00
77192;BME280;66172;48.526;8.078;2024-01-07T01:30:27;99101.78;;;4.40;100.00
77192;BME280;66172;48.526;8.078;2024-01-07T01:32:56;99100.75;;;4.49;100.00
77192;BME280;66172;48.526;8.078;2024-01-07T01:35:22;99109.31;;;4.51;100.00
77192;BME280;66172;48.526;8.078;2024-01-07T01:37:48;99103.75;;;4.48;100.00
77192;BME280;66172;48.526;8.078;2024-01-07T01:40:16;99096.22;;;4.59;100.00
77192;BME280;66172;48.526;8.078;2024-01-07T01:42:43;99094.78;;;4.61;100.00
77192;BME280;66172;48.526;8.078;2024-01-07T01:45:09;99107.78;;;4.59;99.94
77192;BME280;66172;48.526;8.078;2024-01-07T01:47:35;99101.66;;;4.67;99.76
77192;BME280;66172;48.526;8.078;2024-01-07T01:50:01;99107.53;;;4.69;99.96
77192;BME280;66172;48.526;8.078;2024-01-07T01:52:27;99111.44;;;4.63;100.00
77192;BME280;66172;48.526;8.078;2024-01-07T01:54:54;99111.50;;;4.72;99.57
77192;BME280;66172;48.526;8.078;2024-01-07T01:57:24;99110.94;;;4.61;100.00
77192;BME280;66172;48.526;8.078;2024-01-07T01:59:55;99121.72;;;4.61;100.00
77192;BME280;66172;48.526;8.078;2024-01-07T02:02:21;99120.50;;;4.67;100.00
77192;BME280;66172;48.526;8.078;2024-01-07T02:04:47;99114.50;;;4.70;99.76
77192;BME280;66172;48.526;8.078;2024-01-07T02:07:13;99116.94;;;4.80;99.44
77192;BME280;66172;48.526;8.078;2024-01-07T02:09:39;99122.38;;;4.89;98.71
77192;BME280;66172;48.526;8.078;2024-01-07T02:12:06;99117.13;;;4.84;98.62
77192;BME280;66172;48.526;8.078;2024-01-07T02:14:38;99110.13;;;4.83;98.58
77192;BME280;66172;48.526;8.078;2024-01-07T02:17:04;99119.44;;;4.77;99.00
77192;BME280;66172;48.526;8.078;2024-01-07T02:19:31;99116.56;;;4.73;98.57
77192;BME280;66172;48.526;8.078;2024-01-07T02:21:56;99125.56;;;4.69;99.30
77192;BME280;66172;48.526;8.078;2024-01-07T02:24:22;99120.38;;;4.72;99.88
77192;BME280;66172;48.526;8.078;2024-01-07T02:26:48;99118.47;;;4.73;99.46
77192;BME280;66172;48.526;8.078;2024-01-07T02:29:14;99128.88;;;4.66;99.59
77192;BME280;66172;48.526;8.078;2024-01-07T02:31:40;99121.16;;;4.50;100.00
77192;BME280;66172;48.526;8.078;2024-01-07T02:34:06;99124.66;;;4.51;100.00
77192;BME280;66172;48.526;8.078;2024-01-07T02:36:32;99130.72;;;4.57;100.00
77192;BME280;66172;48.526;8.078;2024-01-07T02:38:58;99125.53;;;4.60;100.00
77192;BME280;66172;48.526;8.078;2024-01-07T02:41:23;99130.16;;;4.68;100.00
77192;BME280;66172;48.526;8.078;2024-01-07T02:43:51;99131.63;;;4.74;100.00
77192;BME280;66172;48.526;8.078;2024-01-07T02:46:17;99127.66;;;4.72;100.00
77192;BME280;66172;48.526;8.078;2024-01-07T02:48:43;99123.84;;;4.73;100.00
77192;BME280;66172;48.526;8.078;2024-01-07T02:51:08;99120.53;;;4.76;100.00
77192;BME280;66172;48.526;8.078;2024-01-07T02:53:34;99124.41;;;4.83;100.00
77192;BME280;66172;48.526;8.078;2024-01-07T02:56:00;99122.22;;;4.85;100.00
77192;BME280;66172;48.526;8.078;2024-01-07T02:58:26;99122.06;;;4.90;100.00
77192;BME280;66172;48.526;8.078;2024-01-07T03:00:52;99121.06;;;4.78;100.00
77192;BME280;66172;48.526;8.078;2024-01-07T03:03:18;99127.16;;;4.70;100.00
77192;BME280;66172;48.526;8.078;2024-01-07T03:05:44;99128.09;;;4.65;100.00
77192;BME280;66172;48.526;8.078;2024-01-07T03:08:10;99126.50;;;4.64;100.00
77192;BME280;66172;48.526;8.078;2024-01-07T03:10:35;99132.38;;;4.66;100.00
77192;BME280;66172;48.526;8.078;2024-01-07T03:13:01;99125.94;;;4.76;100.00
77192;BME280;66172;48.526;8.078;2024-01-07T03:15:28;99129.25;;;4.73;100.00
77192;BME280;66172;48.526;8.078;2024-01-07T03:17:54;99134.00;;;4.76;100.00
77192;BME280;66172;48.526;8.078;2024-01-07T03:20:20;99138.00;;;4.78;100.00
77192;BME280;66172;48.526;8.078;2024-01-07T03:22:46;99134.50;;;4.78;100.00
77192;BME280;66172;48.526;8.078;2024-01-07T03:25:12;99131.69;;;4.83;100.00
77192;BME280;66172;48.526;8.078;2024-01-07T03:27:38;99132.44;;;4.75;99.44
77192;BME280;66172;48.526;8.078;2024-01-07T03:30:04;99121.66;;;4.75;99.92
77192;BME280;66172;48.526;8.078;2024-01-07T03:32:30;99140.38;;;4.80;99.98
77192;BME280;66172;48.526;8.078;2024-01-07T03:34:56;99141.19;;;4.58;99.57
77192;BME280;66172;48.526;8.078;2024-01-07T03:37:22;99138.84;;;4.65;99.75
77192;BME280;66172;48.526;8.078;2024-01-07T03:39:48;99144.66;;;4.59;99.80
77192;BME280;66172;48.526;8.078;2024-01-07T03:42:14;99145.03;;;4.66;99.43
77192;BME280;66172;48.526;8.078;2024-01-07T03:44:40;99139.22;;;4.72;99.33
77192;BME280;66172;48.526;8.078;2024-01-07T03:47:06;99145.53;;;4.68;98.58
77192;BME280;66172;48.526;8.078;2024-01-07T03:49:32;99138.38;;;4.63;99.32
77192;BME280;66172;48.526;8.078;2024-01-07T03:51:58;99145.84;;;4.66;99.61
77192;BME280;66172;48.526;8.078;2024-01-07T03:54:24;99149.34;;;4.67;99.16
77192;BME280;66172;48.526;8.078;2024-01-07T03:56:50;99156.78;;;4.70;99.16
77192;BME280;66172;48.526;8.078;2024-01-07T03:59:15;99146.50;;;4.72;99.10
77192;BME280;66172;48.526;8.078;2024-01-07T04:01:42;99153.28;;;4.69;98.20
77192;BME280;66172;48.526;8.078;2024-01-07T04:04:08;99149.50;;;4.70;97.78
77192;BME280;66172;48.526;8.078;2024-01-07T04:06:34;99154.47;;;4.77;97.81
77192;BME280;66172;48.526;8.078;2024-01-07T04:09:00;99146.84;;;4.79;98.35
77192;BME280;66172;48.526;8.078;2024-01-07T04:11:25;99150.13;;;4.67;98.86
77192;BME280;66172;48.526;8.078;2024-01-07T04:13:51;99151.50;;;4.65;98.64
77192;BME280;66172;48.526;8.078;2024-01-07T04:16:19;99150.56;;;4.61;98.77
77192;BME280;66172;48.526;8.078;2024-01-07T04:18:48;99157.16;;;4.54;99.10
77192;BME280;66172;48.526;8.078;2024-01-07T04:21:14;99156.97;;;4.51;98.98
77192;BME280;66172;48.526;8.078;2024-01-07T04:23:40;99164.84;;;4.47;98.98
77192;BME280;66172;48.526;8.078;2024-01-07T04:26:09;99160.63;;;4.55;99.32
77192;BME280;66172;48.526;8.078;2024-01-07T04:28:35;99167.78;;;4.37;99.43
77192;BME280;66172;48.526;8.078;2024-01-07T04:31:01;99166.63;;;4.52;99.34
77192;BME280;66172;48.526;8.078;2024-01-07T04:33:27;99162.06;;;4.52;99.31
77192;BME280;66172;48.526;8.078;2024-01-07T04:35:52;99176.50;;;4.57;99.09
77192;BME280;66172;48.526;8.078;2024-01-07T04:38:23;99161.88;;;4.49;98.83
77192;BME280;66172;48.526;8.078;2024-01-07T04:40:50;99173.50;;;4.58;98.73
77192;BME280;66172;48.526;8.078;2024-01-07T04:43:18;99175.19;;;4.54;97.98
77192;BME280;66172;48.526;8.078;2024-01-07T04:45:44;99180.34;;;4.42;98.09
77192;BME280;66172;48.526;8.078;2024-01-07T04:48:10;99174.53;;;4.48;98.57
77192;BME280;66172;48.526;8.078;2024-01-07T04:50:36;99173.81;;;4.57;98.24
77192;BME280;66172;48.526;8.078;2024-01-07T04:53:02;99180.19;;;4.47;98.89
77192;BME280;66172;48.526;8.078;2024-01-07T04:55:29;99183.28;;;4.54;98.32
77192;BME280;66172;48.526;8.078;2024-01-07T04:57:55;99185.91;;;4.45;98.36
77192;BME280;66172;48.526;8.078;2024-01-07T05:00:21;99187.00;;;4.44;98.63
77192;BME280;66172;48.526;8.078;2024-01-07T05:02:48;99193.09;;;4.50;98.72
77192;BME280;66172;48.526;8.078;2024-01-07T05:05:14;99185.78;;;4.50;98.28
77192;BME280;66172;48.526;8.078;2024-01-07T05:07:40;99180.00;;;4.57;98.02
77192;BME280;66172;48.526;8.078;2024-01-07T05:10:06;99188.84;;;4.58;97.77
77192;BME280;66172;48.526;8.078;2024-01-07T05:12:32;99186.47;;;4.56;98.32
77192;BME280;66172;48.526;8.078;2024-01-07T05:14:58;99191.34;;;4.54;98.24
77192;BME280;66172;48.526;8.078;2024-01-07T05:17:24;99188.13;;;4.66;97.24
77192;BME280;66172;48.526;8.078;2024-01-07T05:19:50;99183.34;;;4.63;97.75
77192;BME280;66172;48.526;8.078;2024-01-07T05:22:15;99192.53;;;4.62;98.21
77192;BME280;66172;48.526;8.078;2024-01-07T05:24:41;99199.44;;;4.76;96.46
77192;BME280;66172;48.526;8.078;2024-01-07T05:27:08;99197.97;;;4.70;96.65
77192;BME280;66172;48.526;8.078;2024-01-07T05:29:34;99201.34;;;4.76;95.93
77192;BME280;66172;48.526;8.078;2024-01-07T05:32:00;99204.47;;;4.69;97.18
77192;BME280;66172;48.526;8.078;2024-01-07T05:34:27;99203.09;;;4.58;97.72
77192;BME280;66172;48.526;8.078;2024-01-07T05:36:53;99208.31;;;4.54;98.09
77192;BME280;66172;48.526;8.078;2024-01-07T05:39:19;99216.19;;;4.51;98.83
77192;BME280;66172;48.526;8.078;2024-01-07T05:41:45;99216.19;;;4.51;99.71
77192;BME280;66172;48.526;8.078;2024-01-07T05:44:11;99211.78;;;4.55;99.40
77192;BME280;66172;48.526;8.078;2024-01-07T05:46:40;99215.09;;;4.52;99.15
77192;BME280;66172;48.526;8.078;2024-01-07T05:49:06;99223.78;;;4.49;99.42
77192;BME280;66172;48.526;8.078;2024-01-07T05:51:32;99226.53;;;4.58;98.55
77192;BME280;66172;48.526;8.078;2024-01-07T05:53:58;99221.66;;;4.60;98.85
77192;BME280;66172;48.526;8.078;2024-01-07T05:56:24;99224.84;;;4.62;98.70
77192;BME280;66172;48.526;8.078;2024-01-07T05:58:50;99232.44;;;4.60;98.32
77192;BME280;66172;48.526;8.078;2024-01-07T06:01:22;99222.78;;;4.45;97.67
77192;BME280;66172;48.526;8.078;2024-01-07T06:03:48;99220.59;;;4.47;97.61
77192;BME280;66172;48.526;8.078;2024-01-07T06:06:14;99226.09;;;4.42;97.74
77192;BME280;66172;48.526;8.078;2024-01-07T06:08:41;99226.91;;;4.42;98.78
77192;BME280;66172;48.526;8.078;2024-01-07T06:11:08;99224.47;;;4.54;98.68
77192;BME280;66172;48.526;8.078;2024-01-07T06:13:34;99230.97;;;4.53;98.51
77192;BME280;66172;48.526;8.078;2024-01-07T06:16:00;99228.47;;;4.57;98.41
77192;BME280;66172;48.526;8.078;2024-01-07T06:18:26;99231.44;;;4.56;98.29
77192;BME280;66172;48.526;8.078;2024-01-07T06:20:52;99237.00;;;4.59;98.52
77192;BME280;66172;48.526;8.078;2024-01-07T06:23:17;99243.38;;;4.63;98.77
77192;BME280;66172;48.526;8.078;2024-01-07T06:25:43;99240.88;;;4.67;98.62
77192;BME280;66172;48.526;8.078;2024-01-07T06:28:09;99244.06;;;4.69;98.64
77192;BME280;66172;48.526;8.078;2024-01-07T06:30:36;99241.59;;;4.59;98.32
77192;BME280;66172;48.526;8.078;2024-01-07T06:33:01;99244.00;;;4.60;98.29
77192;BME280;66172;48.526;8.078;2024-01-07T06:35:27;99250.19;;;4.61;98.63
77192;BME280;66172;48.526;8.078;2024-01-07T06:37:53;99255.66;;;4.56;98.45
77192;BME280;66172;48.526;8.078;2024-01-07T06:40:19;99247.31;;;4.57;98.57
77192;BME280;66172;48.526;8.078;2024-01-07T06:42:45;99254.59;;;4.57;97.88
77192;BME280;66172;48.526;8.078;2024-01-07T06:45:13;99255.38;;;4.57;98.29
77192;BME280;66172;48.526;8.078;2024-01-07T06:47:40;99259.22;;;4.65;97.85
77192;BME280;66172;48.526;8.078;2024-01-07T06:50:06;99253.66;;;4.61;98.45
77192;BME280;66172;48.526;8.078;2024-01-07T06:52:32;99261.25;;;4.59;98.25
77192;BME280;66172;48.526;8.078;2024-01-07T06:54:58;99259.78;;;4.53;98.53
77192;BME280;66172;48.526;8.078;2024-01-07T06:57:24;99256.56;;;4.51;97.61
77192;BME280;66172;48.526;8.078;2024-01-07T06:59:50;99272.94;;;4.41;98.28
77192;BME280;66172;48.526;8.078;2024-01-07T07:02:16;99266.19;;;4.30;98.59
77192;BME280;66172;48.526;8.078;2024-01-07T07:04:42;99277.75;;;4.30;99.36
77192;BME280;66172;48.526;8.078;2024-01-07T07:07:08;99278.34;;;4.41;99.21
77192;BME280;66172;48.526;8.078;2024-01-07T07:09:34;99278.66;;;4.26;99.40
77192;BME280;66172;48.526;8.078;2024-01-07T07:12:00;99284.13;;;4.34;99.00
77192;BME280;66172;48.526;8.078;2024-01-07T07:14:26;99283.75;;;4.27;98.93
77192;BME280;66172;48.526;8.078;2024-01-07T07:16:51;99289.72;;;4.38;99.16
77192;BME280;66172;48.526;8.078;2024-01-07T07:19:17;99288.81;;;4.42;99.34
77192;BME280;66172;48.526;8.078;2024-01-07T07:21:43;99289.50;;;4.48;99.08
77192;BME280;66172;48.526;8.078;2024-01-07T07:24:10;99288.72;;;4.34;99.60
77192;BME280;66172;48.526;8.078;2024-01-07T07:26:36;99295.50;;;4.31;100.00
77192;BME280;66172;48.526;8.078;2024-01-07T07:29:07;99300.19;;;4.39;99.77
77192;BME280;66172;48.526;8.078;2024-01-07T07:31:35;99299.16;;;4.49;99.52
77192;BME280;66172;48.526;8.078;2024-01-07T07:34:04;99309.22;;;4.43;99.85
77192;BME280;66172;48.526;8.078;2024-01-07T07:36:31;99300.38;;;4.43;99.34
77192;BME280;66172;48.526;8.078;2024-01-07T07:38:57;99312.13;;;4.47;100.00
77192;BME280;66172;48.526;8.078;2024-01-07T07:41:23;99309.53;;;4.42;100.00
77192;BME280;66172;48.526;8.078;2024-01-07T07:43:49;99312.44;;;4.45;100.00
77192;BME280;66172;48.526;8.078;2024-01-07T07:46:15;99320.13;;;4.38;100.00
77192;BME280;66172;48.526;8.078;2024-01-07T07:48:41;99318.84;;;4.36;100.00
77192;BME280;66172;48.526;8.078;2024-01-07T07:51:07;99319.50;;;4.41;100.00
77192;BME280;66172;48.526;8.078;2024-01-07T07:53:33;99321.72;;;4.39;100.00
77192;BME280;66172;48.526;8.078;2024-01-07T07:56:00;99319.41;;;4.46;100.00
77192;BME280;66172;48.526;8.078;2024-01-07T07:58:26;99323.28;;;4.40;100.00
77192;BME280;66172;48.526;8.078;2024-01-07T08:00:52;99324.09;;;4.27;100.00
77192;BME280;66172;48.526;8.078;2024-01-07T08:03:18;99319.53;;;4.28;100.00
77192;BME280;66172;48.526;8.078;2024-01-07T08:05:44;99321.63;;;4.31;100.00
77192;BME280;66172;48.526;8.078;2024-01-07T08:08:10;99322.09;;;4.33;100.00
77192;BME280;66172;48.526;8.078;2024-01-07T08:10:36;99319.41;;;4.33;100.00
77192;BME280;66172;48.526;8.078;2024-01-07T08:13:01;99319.81;;;4.26;100.00
77192;BME280;66172;48.526;8.078;2024-01-07T08:15:27;99330.16;;;4.33;100.00
77192;BME280;66172;48.526;8.078;2024-01-07T08:17:53;99325.59;;;4.33;100.00
77192;BME280;66172;48.526;8.078;2024-01-07T08:20:19;99332.56;;;4.34;100.00
77192;BME280;66172;48.526;8.078;2024-01-07T08:22:45;99332.38;;;4.31;100.00
77192;BME280;66172;48.526;8.078;2024-01-07T08:25:11;99333.56;;;4.38;100.00
77192;BME280;66172;48.526;8.078;2024-01-07T08:27:37;99344.53;;;4.42;100.00
77192;BME280;66172;48.526;8.078;2024-01-07T08:30:03;99340.56;;;4.39;100.00
77192;BME280;66172;48.526;8.078;2024-01-07T08:32:29;99345.94;;;4.39;100.00
77192;BME280;66172;48.526;8.078;2024-01-07T08:34:55;99344.53;;;4.42;100.00
77192;BME280;66172;48.526;8.078;2024-01-07T08:37:21;99350.41;;;4.44;100.00
77192;BME280;66172;48.526;8.078;2024-01-07T08:39:47;99354.41;;;4.60;100.00
77192;BME280;66172;48.526;8.078;2024-01-07T08:42:13;99351.72;;;4.60;100.00
77192;BME280;66172;48.526;8.078;2024-01-07T08:44:39;99351.81;;;4.55;100.00
77192;BME280;66172;48.526;8.078;2024-01-07T08:47:05;99353.28;;;4.47;100.00
77192;BME280;66172;48.526;8.078;2024-01-07T08:49:31;99359.47;;;4.48;100.00
77192;BME280;66172;48.526;8.078;2024-01-07T08:52:00;99351.50;;;4.57;100.00
77192;BME280;66172;48.526;8.078;2024-01-07T08:54:26;99356.16;;;4.65;100.00
77192;BME280;66172;48.526;8.078;2024-01-07T08:56:52;99366.03;;;4.69;100.00
77192;BME280;66172;48.526;8.078;2024-01-07T08:59:18;99361.03;;;4.76;100.00
77192;BME280;66172;48.526;8.078;2024-01-07T09:01:43;99357.06;;;4.74;99.89
77192;BME280;66172;48.526;8.078;2024-01-07T09:04:09;99364.25;;;4.78;99.23
77192;BME280;66172;48.526;8.078;2024-01-07T09:06:35;99367.13;;;4.82;99.35
77192;BME280;66172;48.526;8.078;2024-01-07T09:09:01;99370.59;;;4.96;98.71
77192;BME280;66172;48.526;8.078;2024-01-07T09:11:27;99372.38;;;5.00;97.85
77192;BME280;66172;48.526;8.078;2024-01-07T09:13:53;99380.00;;;4.85;95.54
77192;BME280;66172;48.526;8.078;2024-01-07T09:16:19;99372.69;;;4.99;95.52
77192;BME280;66172;48.526;8.078;2024-01-07T09:18:45;99376.56;;;5.07;96.29
77192;BME280;66172;48.526;8.078;2024-01-07T09:21:11;99382.44;;;5.09;96.00
77192;BME280;66172;48.526;8.078;2024-01-07T09:23:37;99382.88;;;5.24;95.45
77192;BME280;66172;48.526;8.078;2024-01-07T09:26:03;99387.34;;;5.07;95.48
77192;BME280;66172;48.526;8.078;2024-01-07T09:28:29;99387.16;;;5.03;95.70
77192;BME280;66172;48.526;8.078;2024-01-07T09:30:55;99400.31;;;5.04;95.15
77192;BME280;66172;48.526;8.078;2024-01-07T09:33:21;99393.69;;;5.11;95.14
77192;BME280;66172;48.526;8.078;2024-01-07T09:35:52;99394.25;;;5.21;94.50
77192;BME280;66172;48.526;8.078;2024-01-07T09:38:20;99404.44;;;5.24;94.51
77192;BME280;66172;48.526;8.078;2024-01-07T09:40:46;99401.31;;;5.09;94.72
77192;BME280;66172;48.526;8.078;2024-01-07T09:43:12;99398.56;;;5.22;94.29
77192;BME280;66172;48.526;8.078;2024-01-07T09:45:38;99402.97;;;5.18;95.46
77192;BME280;66172;48.526;8.078;2024-01-07T09:48:06;99407.25;;;5.19;94.81
77192;BME280;66172;48.526;8.078;2024-01-07T09:50:32;99401.75;;;5.24;94.64
77192;BME280;66172;48.526;8.078;2024-01-07T09:53:01;99404.44;;;5.24;94.14
77192;BME280;66172;48.526;8.078;2024-01-07T09:55:33;99404.44;;;5.24;93.91
77192;BME280;66172;48.526;8.078;2024-01-07T09:58:04;99401.06;;;5.19;93.51
77192;BME280;66172;48.526;8.078;2024-01-07T10:00:30;99398.47;;;5.27;94.06
77192;BME280;66172;48.526;8.078;2024-01-07T10:02:55;99400.31;;;5.40;93.22
77192;BME280;66172;48.526;8.078;2024-01-07T10:05:21;99398.47;;;5.49;92.13
77192;BME280;66172;48.526;8.078;2024-01-07T10:07:47;99396.66;;;5.59;92.30
77192;BME280;66172;48.526;8.078;2024-01-07T10:10:14;99403.56;;;5.73;91.82
77192;BME280;66172;48.526;8.078;2024-01-07T10:12:40;99395.84;;;5.80;90.19
77192;BME280;66172;48.526;8.078;2024-01-07T10:15:07;99403.88;;;5.72;90.25
77192;BME280;66172;48.526;8.078;2024-01-07T10:17:33;99405.75;;;5.71;90.58
77192;BME280;66172;48.526;8.078;2024-01-07T10:19:59;99397.22;;;5.78;89.68
77192;BME280;66172;48.526;8.078;2024-01-07T10:22:26;99400.03;;;5.86;90.07
77192;BME280;66172;48.526;8.078;2024-01-07T10:24:52;99401.94;;;5.86;90.12
77192;BME280;66172;48.526;8.078;2024-01-07T10:27:18;99399.13;;;5.91;88.91
77192;BME280;66172;48.526;8.078;2024-01-07T10:29:46;99398.22;;;6.04;87.48
77192;BME280;66172;48.526;8.078;2024-01-07T10:32:15;99398.06;;;6.00;88.29
77192;BME280;66172;48.526;8.078;2024-01-07T10:34:44;99392.69;;;6.09;86.76
77192;BME280;66172;48.526;8.078;2024-01-07T10:37:12;99397.59;;;6.07;86.18
77192;BME280;66172;48.526;8.078;2024-01-07T10:39:38;99397.91;;;6.06;87.02
77192;BME280;66172;48.526;8.078;2024-01-07T10:42:05;99401.75;;;6.13;87.85
77192;BME280;66172;48.526;8.078;2024-01-07T10:44:32;99400.97;;;6.13;88.37
77192;BME280;66172;48.526;8.078;2024-01-07T10:46:59;99398.44;;;6.16;87.67
77192;BME280;66172;48.526;8.078;2024-01-07T10:49:28;99402.56;;;6.14;87.31
77192;BME280;66172;48.526;8.078;2024-01-07T10:52:07;99396.94;;;6.32;85.78
77192;BME280;66172;48.526;8.078;2024-01-07T10:54:35;99400.19;;;6.12;86.51
77192;BME280;66172;48.526;8.078;2024-01-07T10:57:34;99402.78;;;6.26;86.39
77192;BME280;66172;48.526;8.078;2024-01-07T11:00:06;99400.28;;;6.38;86.41
77192;BME280;66172;48.526;8.078;2024-01-07T11:05:25;99396.97;;;6.41;85.09
77192;BME280;66172;48.526;8.078;2024-01-07T11:08:13;99391.78;;;6.53;85.75
77192;BME280;66172;48.526;8.078;2024-01-07T11:10:50;99393.09;;;6.64;84.32
77192;BME280;66172;48.526;8.078;2024-01-07T11:13:35;99394.06;;;6.68;81.87
77192;BME280;66172;48.526;8.078;2024-01-07T11:16:12;99398.19;;;6.74;81.98
77192;BME280;66172;48.526;8.078;2024-01-07T11:18:50;99385.31;;;6.71;82.68
77192;BME280;66172;48.526;8.078;2024-01-07T11:21:23;99374.22;;;6.81;82.66
77192;BME280;66172;48.526;8.078;2024-01-07T11:23:50;99391.69;;;6.84;83.01
77192;BME280;66172;48.526;8.078;2024-01-07T11:26:17;99389.25;;;6.65;84.70
77192;BME280;66172;48.526;8.078;2024-01-07T11:28:54;99394.16;;;6.54;85.83
77192;BME280;66172;48.526;8.078;2024-01-07T11:31:48;99401.47;;;6.54;84.59
77192;BME280;66172;48.526;8.078;2024-01-07T11:34:41;99399.88;;;6.62;85.20
77192;BME280;66172;48.526;8.078;2024-01-07T11:37:13;99403.50;;;6.40;85.94
77192;BME280;66172;48.526;8.078;2024-01-07T11:39:42;99408.09;;;6.39;87.20
77192;BME280;66172;48.526;8.078;2024-01-07T11:42:10;99393.31;;;6.45;87.49
77192;BME280;66172;48.526;8.078;2024-01-07T11:44:37;99412.34;;;6.32;87.39
77192;BME280;66172;48.526;8.078;2024-01-07T11:47:04;99395.97;;;6.28;88.19
77192;BME280;66172;48.526;8.078;2024-01-07T11:49:32;99402.63;;;6.22;88.34
77192;BME280;66172;48.526;8.078;2024-01-07T11:51:59;99405.84;;;6.33;88.44
77192;BME280;66172;48.526;8.078;2024-01-07T11:54:25;99404.97;;;6.15;89.48
77192;BME280;66172;48.526;8.078;2024-01-07T11:56:51;99402.88;;;6.12;89.26
77192;BME280;66172;48.526;8.078;2024-01-07T11:59:17;99402.38;;;6.10;88.94
77192;BME280;66172;48.526;8.078;2024-01-07T12:01:43;99399.16;;;5.99;89.13
77192;BME280;66172;48.526;8.078;2024-01-07T12:04:08;99399.28;;;5.94;88.51
77192;BME280;66172;48.526;8.078;2024-01-07T12:06:35;99401.50;;;5.92;88.69
77192;BME280;66172;48.526;8.078;2024-01-07T12:09:01;99400.88;;;5.95;87.68
77192;BME280;66172;48.526;8.078;2024-01-07T12:11:27;99394.72;;;6.03;83.32
77192;BME280;66172;48.526;8.078;2024-01-07T12:13:53;99412.63;;;6.22;82.23
77192;BME280;66172;48.526;8.078;2024-01-07T12:16:20;99400.47;;;6.11;79.85
77192;BME280;66172;48.526;8.078;2024-01-07T12:18:46;99409.22;;;6.16;81.53
77192;BME280;66172;48.526;8.078;2024-01-07T12:21:18;99408.13;;;6.17;82.45
77192;BME280;66172;48.526;8.078;2024-01-07T12:23:48;99403.00;;;6.07;81.33
77192;BME280;66172;48.526;8.078;2024-01-07T12:26:15;99408.22;;;6.03;82.16
77192;BME280;66172;48.526;8.078;2024-01-07T12:28:42;99416.75;;;6.19;79.88
77192;BME280;66172;48.526;8.078;2024-01-07T12:31:08;99417.56;;;6.28;76.60
77192;BME280;66172;48.526;8.078;2024-01-07T12:33:37;99419.63;;;6.31;77.05
77192;BME280;66172;48.526;8.078;2024-01-07T12:36:03;99419.13;;;5.98;77.75
77192;BME280;66172;48.526;8.078;2024-01-07T12:38:29;99422.41;;;5.87;77.18
77192;BME280;66172;48.526;8.078;2024-01-07T12:40:56;99421.16;;;6.15;75.98
77192;BME280;66172;48.526;8.078;2024-01-07T12:43:22;99422.63;;;5.99;75.25
77192;BME280;66172;48.526;8.078;2024-01-07T12:45:48;99425.50;;;6.02;74.97
77192;BME280;66172;48.526;8.078;2024-01-07T12:48:14;99418.66;;;5.96;75.00
77192;BME280;66172;48.526;8.078;2024-01-07T12:50:41;99426.94;;;6.00;75.05
77192;BME280;66172;48.526;8.078;2024-01-07T12:53:07;99428.41;;;6.06;74.16
77192;BME280;66172;48.526;8.078;2024-01-07T12:55:33;99432.78;;;5.93;74.68
77192;BME280;66172;48.526;8.078;2024-01-07T12:57:59;99431.25;;;6.01;75.23
77192;BME280;66172;48.526;8.078;2024-01-07T13:00:25;99439.44;;;5.96;74.04
77192;BME280;66172;48.526;8.078;2024-01-07T13:02:52;99437.59;;;5.83;74.48
77192;BME280;66172;48.526;8.078;2024-01-07T13:05:18;99437.47;;;5.88;74.02
77192;BME280;66172;48.526;8.078;2024-01-07T13:07:44;99448.34;;;5.96;73.96